createdAt,value
2023-04-15T00:01:38.079Z,69.20
2023-04-15T00:04:05.526Z,69.30
2023-04-15T00:06:33.010Z,69.60
2023-04-15T00:09:01.001Z,69.30
2023-04-15T00:11:28.870Z,69.30
2023-04-15T00:13:56.224Z,69.60
2023-04-15T00:16:23.704Z,69.30
2023-04-15T00:18:51.794Z,69.50
2023-04-15T00:21:19.244Z,69.30
2023-04-15T00:23:49.809Z,69.60
2023-04-15T00:26:17.155Z,69.70
2023-04-15T00:28:44.859Z,70.10
2023-04-15T00:31:12.414Z,70.00
2023-04-15T00:33:40.868Z,70.10
2023-04-15T00:36:08.726Z,70.50
2023-04-15T00:38:38.131Z,70.00
2023-04-15T00:41:05.723Z,70.80
2023-04-15T00:43:33.137Z,70.60
2023-04-15T00:46:02.401Z,70.50
2023-04-15T00:48:30.865Z,70.90
2023-04-15T00:50:58.404Z,71.10
2023-04-15T00:53:25.856Z,70.70
2023-04-15T00:55:54.292Z,70.70
2023-04-15T00:58:21.813Z,71.80
2023-04-15T01:00:49.634Z,70.90
2023-04-15T01:03:17.199Z,71.00
2023-04-15T01:05:44.887Z,70.90
2023-04-15T01:08:12.751Z,71.50
2023-04-15T01:10:40.363Z,71.20
2023-04-15T01:13:07.949Z,71.40
2023-04-15T01:15:36.570Z,72.40
2023-04-15T01:18:04.214Z,72.50
2023-04-15T01:20:32.137Z,71.70
2023-04-15T01:23:01.312Z,71.60
2023-04-15T01:25:33.659Z,71.60
2023-04-15T01:28:01.284Z,73.70
2023-04-15T01:30:29.222Z,71.90
2023-04-15T01:32:56.672Z,71.80
2023-04-15T01:35:24.136Z,72.10
2023-04-15T01:37:52.587Z,72.00
2023-04-15T01:40:20.525Z,72.40
2023-04-15T01:42:47.852Z,72.10
2023-04-15T01:45:16.723Z,72.00
2023-04-15T01:47:44.079Z,72.00
2023-04-15T01:50:11.643Z,72.00
2023-04-15T01:52:39.097Z,72.60
2023-04-15T01:55:08.060Z,72.40
2023-04-15T01:57:35.755Z,72.50
2023-04-15T02:00:03.673Z,73.20
2023-04-15T02:02:41.009Z,72.10
2023-04-15T02:05:08.910Z,72.70
2023-04-15T02:07:37.999Z,72.70
2023-04-15T02:10:05.660Z,72.60
2023-04-15T02:12:36.302Z,72.90
2023-04-15T02:15:04.380Z,73.00
2023-04-15T02:17:35.776Z,72.90
2023-04-15T02:20:06.170Z,74.90
2023-04-15T02:22:33.617Z,74.10
2023-04-15T02:25:01.207Z,73.30
2023-04-15T02:27:29.012Z,73.50
2023-04-15T02:29:56.544Z,74.10
2023-04-15T02:32:24.535Z,73.90
2023-04-15T02:34:52.643Z,74.30
2023-04-15T02:37:20.416Z,73.90
2023-04-15T02:39:48.070Z,74.00
2023-04-15T02:42:16.288Z,74.00
2023-04-15T02:44:44.368Z,73.70
2023-04-15T02:47:11.904Z,73.80
2023-04-15T02:49:40.187Z,73.80
2023-04-15T02:52:07.854Z,74.90
2023-04-15T02:54:35.430Z,75.00
2023-04-15T02:57:03.964Z,74.40
2023-04-15T02:59:31.367Z,74.30
2023-04-15T03:02:01.555Z,74.40
2023-04-15T03:04:30.809Z,74.50
2023-04-15T03:06:58.184Z,75.00
2023-04-15T03:09:26.842Z,74.90
2023-04-15T03:11:55.422Z,74.50
2023-04-15T03:14:23.460Z,75.70
2023-04-15T03:16:51.958Z,74.70
2023-04-15T03:19:19.496Z,75.40
2023-04-15T03:21:46.907Z,74.90
2023-04-15T03:24:14.778Z,75.90
2023-04-15T03:26:42.226Z,75.90
2023-04-15T03:29:13.027Z,76.10
2023-04-15T03:31:41.856Z,75.20
2023-04-15T03:34:09.217Z,75.70
2023-04-15T03:36:37.374Z,75.30
2023-04-15T03:39:04.709Z,76.50
2023-04-15T03:41:32.992Z,75.50
2023-04-15T03:44:00.579Z,75.70
2023-04-15T03:46:28.106Z,75.60
2023-04-15T03:48:55.500Z,76.00
2023-04-15T03:51:22.864Z,76.10
2023-04-15T03:53:50.202Z,76.30
2023-04-15T03:56:17.593Z,76.70
2023-04-15T03:58:44.883Z,76.10
2023-04-15T04:01:12.224Z,76.60
2023-04-15T04:03:39.715Z,76.30
2023-04-15T04:06:08.051Z,76.70
2023-04-15T04:08:35.646Z,76.20
2023-04-15T04:11:02.970Z,76.10
2023-04-15T04:13:30.488Z,76.40
2023-04-15T04:15:57.924Z,76.60
2023-04-15T04:18:25.391Z,76.50
2023-04-15T04:20:52.875Z,77.70
2023-04-15T04:23:20.728Z,77.20
2023-04-15T04:25:48.076Z,77.30
2023-04-15T04:28:15.512Z,77.10
2023-04-15T04:30:42.944Z,77.00
2023-04-15T04:33:10.370Z,77.90
2023-04-15T04:35:37.826Z,77.00
2023-04-15T04:38:05.211Z,78.10
2023-04-15T04:40:32.606Z,77.30
2023-04-15T04:43:00.407Z,78.00
2023-04-15T04:45:27.840Z,78.00
2023-04-15T04:47:56.094Z,77.50
2023-04-15T04:50:23.521Z,79.40
2023-04-15T04:52:51.181Z,78.70
2023-04-15T04:55:18.696Z,78.00
2023-04-15T04:57:46.137Z,77.80
2023-04-15T05:00:14.058Z,78.00
2023-04-15T05:02:44.113Z,78.30
2023-04-15T05:05:12.011Z,78.40
2023-04-15T05:07:39.718Z,78.40
2023-04-15T05:10:07.680Z,78.40
2023-04-15T05:12:37.358Z,78.60
2023-04-15T05:15:06.207Z,79.30
2023-04-15T05:17:35.300Z,79.30
2023-04-15T05:20:03.761Z,78.50
2023-04-15T05:22:31.148Z,78.30
2023-04-15T05:24:58.539Z,78.60
2023-04-15T05:27:26.046Z,79.20
2023-04-15T05:29:53.416Z,79.00
2023-04-15T05:32:20.860Z,79.20
2023-04-15T05:34:48.165Z,79.00
2023-04-15T05:37:15.677Z,78.90
2023-04-15T05:39:43.358Z,79.00
2023-04-15T05:42:10.727Z,79.40
2023-04-15T05:44:38.023Z,79.20
2023-04-15T05:47:05.997Z,79.50
2023-04-15T05:49:33.332Z,79.80
2023-04-15T05:52:00.743Z,79.30
2023-04-15T05:54:28.068Z,79.30
2023-04-15T05:56:56.387Z,79.50
2023-04-15T05:59:23.705Z,79.40
2023-04-15T06:01:52.192Z,79.40
2023-04-15T06:04:19.709Z,80.20
2023-04-15T06:06:47.222Z,80.30
2023-04-15T06:09:14.537Z,78.90
2023-04-15T06:11:41.903Z,80.10
2023-04-15T06:14:09.305Z,79.10
2023-04-15T06:16:36.739Z,79.00
2023-04-15T06:19:04.351Z,80.00
2023-04-15T06:21:31.921Z,80.00
2023-04-15T06:24:01.620Z,78.90
2023-04-15T06:26:29.020Z,80.10
2023-04-15T06:28:56.404Z,79.00
2023-04-15T06:31:23.840Z,79.50
2023-04-15T06:33:51.383Z,79.20
2023-04-15T06:36:18.652Z,79.10
2023-04-15T06:38:45.983Z,79.10
2023-04-15T06:41:13.427Z,79.30
2023-04-15T06:43:40.802Z,79.40
2023-04-15T06:46:08.212Z,79.10
2023-04-15T06:48:35.611Z,79.00
2023-04-15T06:51:04.076Z,79.50
2023-04-15T06:53:31.533Z,78.90
2023-04-15T06:55:58.828Z,78.80
2023-04-15T06:58:26.522Z,78.60
2023-04-15T07:00:53.933Z,78.70
2023-04-15T07:03:21.358Z,79.30
2023-04-15T07:05:48.918Z,78.50
2023-04-15T07:08:16.239Z,78.50
2023-04-15T07:10:43.581Z,78.60
2023-04-15T07:13:11.354Z,78.30
2023-04-15T07:15:38.710Z,78.40
2023-04-15T07:18:06.494Z,78.00
2023-04-15T07:20:33.891Z,78.70
2023-04-15T07:23:01.224Z,77.90
2023-04-15T07:25:28.599Z,77.80
2023-04-15T07:27:56.306Z,77.50
2023-04-15T07:30:23.779Z,77.30
2023-04-15T07:32:51.357Z,77.30
2023-04-15T07:35:21.423Z,77.30
2023-04-15T07:37:48.987Z,77.40
2023-04-15T07:40:16.476Z,77.60
2023-04-15T07:42:44.242Z,77.20
2023-04-15T07:45:12.857Z,77.80
2023-04-15T07:47:42.060Z,77.40
2023-04-15T07:50:13.312Z,76.70
2023-04-15T07:52:40.753Z,76.80
2023-04-15T07:55:09.448Z,76.30
2023-04-15T07:57:37.467Z,76.40
2023-04-15T08:00:07.584Z,76.60
2023-04-15T08:02:42.873Z,76.10
2023-04-15T08:05:11.011Z,75.20
2023-04-15T08:07:39.746Z,75.20
2023-04-15T08:10:08.291Z,74.30
2023-04-15T08:12:35.893Z,74.50
2023-04-15T08:15:03.924Z,74.20
2023-04-15T08:17:31.293Z,74.40
2023-04-15T08:19:58.653Z,74.30
2023-04-15T08:22:26.077Z,74.30
2023-04-15T08:24:53.458Z,73.80
2023-04-15T08:27:20.766Z,73.10
2023-04-15T08:29:48.062Z,72.90
2023-04-15T08:32:16.156Z,72.90
2023-04-15T08:34:43.518Z,72.70
2023-04-15T08:37:12.579Z,72.60
2023-04-15T08:39:40.165Z,72.40
2023-04-15T08:42:16.492Z,72.10
2023-04-15T08:44:44.715Z,73.60
2023-04-15T08:47:14.945Z,72.00
2023-04-15T08:49:43.365Z,72.60
2023-04-15T08:52:10.775Z,72.10
2023-04-15T08:54:38.764Z,71.20
2023-04-15T08:57:06.978Z,71.00
2023-04-15T08:59:35.624Z,70.80
2023-04-15T09:02:05.056Z,69.50
2023-04-15T09:04:32.871Z,70.40
2023-04-15T09:07:00.449Z,69.50
2023-04-15T09:09:27.962Z,69.70
2023-04-15T09:11:55.953Z,69.20
2023-04-15T09:14:23.340Z,69.50
2023-04-15T09:17:04.585Z,68.80
2023-04-15T09:19:34.370Z,70.20
2023-04-15T09:22:02.499Z,68.60
2023-04-15T09:24:39.263Z,69.20
2023-04-15T09:27:06.963Z,69.50
2023-04-15T09:29:34.548Z,68.50
2023-04-15T09:32:12.170Z,68.10
2023-04-15T09:34:39.637Z,69.60
2023-04-15T09:37:08.051Z,68.10
2023-04-15T09:39:48.657Z,67.70
2023-04-15T09:42:17.691Z,68.60
2023-04-15T09:44:49.490Z,66.90
2023-04-15T09:47:32.964Z,66.30
2023-04-15T09:50:01.676Z,68.50
2023-04-15T09:52:30.258Z,66.70
2023-04-15T09:54:59.129Z,66.60
2023-04-15T09:57:35.007Z,68.00
2023-04-15T10:00:05.192Z,67.60
2023-04-15T10:02:34.208Z,67.00
2023-04-15T10:05:06.001Z,66.20
2023-04-15T10:07:34.173Z,67.00
2023-04-15T10:10:02.544Z,66.30
2023-04-15T10:12:31.180Z,66.10
2023-04-15T10:15:05.232Z,66.40
2023-04-15T10:17:35.418Z,66.00
2023-04-15T10:20:05.256Z,65.20
2023-04-15T10:22:33.220Z,65.30
2023-04-15T10:25:01.259Z,64.90
2023-04-15T10:27:29.213Z,64.90
2023-04-15T10:29:58.102Z,65.10
2023-04-15T10:32:26.406Z,65.10
2023-04-15T10:34:54.987Z,64.60
2023-04-15T10:37:33.282Z,64.30
2023-04-15T10:40:00.686Z,64.40
2023-04-15T10:42:35.459Z,64.30
2023-04-15T10:45:03.570Z,64.40
2023-04-15T10:47:32.809Z,63.40
2023-04-15T10:50:02.441Z,63.90
2023-04-15T10:52:30.290Z,63.50
2023-04-15T10:55:17.859Z,62.80
2023-04-15T10:57:45.579Z,63.30
2023-04-15T11:00:15.856Z,62.70
2023-04-15T11:02:57.887Z,62.90
2023-04-15T11:05:55.917Z,62.80
2023-04-15T11:08:56.708Z,63.60
2023-04-15T11:11:44.938Z,63.00
2023-04-15T11:14:16.387Z,62.30
2023-04-15T11:16:47.072Z,63.20
2023-04-15T11:19:14.572Z,62.40
2023-04-15T11:21:42.185Z,62.10
2023-04-15T11:24:10.862Z,61.80
2023-04-15T11:26:38.301Z,62.10
2023-04-15T11:29:05.862Z,61.80
2023-04-15T11:31:33.345Z,61.70
2023-04-15T11:34:02.285Z,61.60
2023-04-15T11:36:32.219Z,61.80
2023-04-15T11:39:00.759Z,62.00
2023-04-15T11:41:28.146Z,61.60
2023-04-15T11:43:56.290Z,62.00
2023-04-15T11:46:31.263Z,62.00
2023-04-15T11:48:58.668Z,62.70
2023-04-15T11:51:26.053Z,62.00
2023-04-15T11:53:54.783Z,62.00
2023-04-15T11:56:26.491Z,62.30
2023-04-15T11:58:57.205Z,62.60
2023-04-15T12:01:43.855Z,62.40
2023-04-15T12:04:25.238Z,62.40
2023-04-15T12:06:53.038Z,61.80
2023-04-15T12:09:21.640Z,61.20
2023-04-15T12:11:51.218Z,61.50
2023-04-15T12:14:31.103Z,60.00
2023-04-15T12:17:04.821Z,61.20
2023-04-15T12:19:37.678Z,60.60
2023-04-15T12:22:25.472Z,61.50
2023-04-15T12:24:57.340Z,61.60
2023-04-15T12:27:29.199Z,60.80
2023-04-15T12:30:07.924Z,60.80
2023-04-15T12:32:35.876Z,61.20
2023-04-15T12:35:03.364Z,61.10
2023-04-15T12:37:30.735Z,60.40
2023-04-15T12:39:58.144Z,59.70
2023-04-15T12:42:25.488Z,60.20
2023-04-15T12:44:52.848Z,60.30
2023-04-15T12:47:20.336Z,60.80
2023-04-15T12:49:49.748Z,60.20
2023-04-15T12:52:17.163Z,60.10
2023-04-15T12:54:44.704Z,59.60
2023-04-15T12:57:12.337Z,59.70
2023-04-15T12:59:39.853Z,59.80
2023-04-15T13:02:07.331Z,60.00
2023-04-15T13:04:34.860Z,60.80
2023-04-15T13:07:02.858Z,61.20
2023-04-15T13:09:31.010Z,61.30
2023-04-15T13:11:58.389Z,61.00
2023-04-15T13:14:25.810Z,60.80
2023-04-15T13:16:53.947Z,60.90
2023-04-15T13:19:21.324Z,60.80
2023-04-15T13:21:48.714Z,60.40
2023-04-15T13:24:17.358Z,60.30
2023-04-15T13:26:44.812Z,60.40
2023-04-15T13:29:13.466Z,60.20
2023-04-15T13:31:41.046Z,59.70
2023-04-15T13:34:08.506Z,60.00
2023-04-15T13:36:35.870Z,59.50
2023-04-15T13:39:05.437Z,59.70
2023-04-15T13:41:32.992Z,59.40
2023-04-15T13:44:00.561Z,59.60
2023-04-15T13:46:28.064Z,59.70
2023-04-15T13:48:55.653Z,59.30
2023-04-15T13:51:23.021Z,59.90
2023-04-15T13:53:50.374Z,59.90
2023-04-15T13:56:17.766Z,60.00
2023-04-15T13:58:45.135Z,60.10
2023-04-15T14:01:12.576Z,60.20
2023-04-15T14:03:40.327Z,60.40
2023-04-15T14:06:08.760Z,59.70
2023-04-15T14:08:36.216Z,60.10
2023-04-15T14:11:03.855Z,59.80
2023-04-15T14:13:31.410Z,59.20
2023-04-15T14:15:58.803Z,59.30
2023-04-15T14:18:26.281Z,59.60
2023-04-15T14:20:53.752Z,59.60
2023-04-15T14:23:21.306Z,59.70
2023-04-15T14:25:48.672Z,59.80
2023-04-15T14:28:16.509Z,60.00
2023-04-15T14:30:44.032Z,60.30
2023-04-15T14:33:11.758Z,60.50
2023-04-15T14:35:39.349Z,60.50
2023-04-15T14:38:10.473Z,61.20
2023-04-15T14:40:37.945Z,60.90
2023-04-15T14:43:05.472Z,61.90
2023-04-15T14:45:33.144Z,61.70
2023-04-15T14:48:00.923Z,61.50
2023-04-15T14:50:28.538Z,61.60
2023-04-15T14:52:55.946Z,61.60
2023-04-15T14:55:23.275Z,61.90
2023-04-15T14:57:50.931Z,62.00
2023-04-15T15:00:18.302Z,62.10
2023-04-15T15:02:47.445Z,62.00
2023-04-15T15:05:15.196Z,61.90
2023-04-15T15:07:42.597Z,61.60
2023-04-15T15:10:10.311Z,61.50
2023-04-15T15:12:37.741Z,61.60
2023-04-15T15:15:15.512Z,62.30
2023-04-15T15:17:47.503Z,62.20
2023-04-15T15:20:16.612Z,62.40
2023-04-15T15:22:44.141Z,62.30
2023-04-15T15:25:11.547Z,62.50
2023-04-15T15:27:38.988Z,62.50
2023-04-15T15:30:07.110Z,62.30
2023-04-15T15:32:34.882Z,62.30
2023-04-15T15:35:02.459Z,62.50
2023-04-15T15:37:31.538Z,63.00
2023-04-15T15:39:59.203Z,63.40
2023-04-15T15:42:26.903Z,63.80
2023-04-15T15:44:54.244Z,63.40
2023-04-15T15:47:23.062Z,63.10
2023-04-15T15:49:50.500Z,63.00
2023-04-15T15:52:18.020Z,63.50
2023-04-15T15:54:45.525Z,63.80
2023-04-15T15:57:12.926Z,64.20
2023-04-15T15:59:43.506Z,64.10
2023-04-15T16:02:12.118Z,63.80
2023-04-15T16:04:40.425Z,64.30
2023-04-15T16:07:07.926Z,64.40
2023-04-15T16:09:35.435Z,64.50
2023-04-15T16:12:03.996Z,64.40
2023-04-15T16:14:31.397Z,64.60
2023-04-15T16:16:58.794Z,64.70
2023-04-15T16:19:26.320Z,65.10
2023-04-15T16:21:54.382Z,65.60
2023-04-15T16:24:21.787Z,65.40
2023-04-15T16:26:49.142Z,65.60
2023-04-15T16:29:16.558Z,66.40
2023-04-15T16:31:43.966Z,66.00
2023-04-15T16:34:12.021Z,65.70
2023-04-15T16:36:40.700Z,66.20
2023-04-15T16:39:08.056Z,66.20
2023-04-15T16:41:35.621Z,66.50
2023-04-15T16:44:03.322Z,66.80
2023-04-15T16:46:31.831Z,66.50
2023-04-15T16:48:59.272Z,67.70
2023-04-15T16:51:27.561Z,67.20
2023-04-15T16:53:54.927Z,67.90
2023-04-15T16:56:22.549Z,67.30
2023-04-15T16:58:49.839Z,67.90
2023-04-15T17:01:17.380Z,67.40
2023-04-15T17:03:45.891Z,67.50
2023-04-15T17:06:17.260Z,67.10
2023-04-15T17:08:44.859Z,67.20
2023-04-15T17:11:12.539Z,67.80
2023-04-15T17:13:39.949Z,68.00
2023-04-15T17:16:07.768Z,68.20
2023-04-15T17:18:35.375Z,68.60
2023-04-15T17:21:02.789Z,68.60
2023-04-15T17:23:30.928Z,69.00
2023-04-15T17:25:58.247Z,68.60
2023-04-15T17:28:25.668Z,68.80
2023-04-15T17:30:53.093Z,69.40
2023-04-15T17:34:00.243Z,69.20
2023-04-15T17:36:08.775Z,69.40
2023-04-15T17:38:36.147Z,69.30
2023-04-15T17:41:04.807Z,69.90
2023-04-15T17:43:32.321Z,69.70
2023-04-15T17:45:59.793Z,70.10
2023-04-15T17:48:27.488Z,70.20
2023-04-15T17:50:54.917Z,70.30
2023-04-15T17:53:22.317Z,71.20
2023-04-15T17:55:53.142Z,70.60
2023-04-15T17:58:20.579Z,70.20
2023-04-15T18:00:48.250Z,70.60
2023-04-15T18:03:15.885Z,71.10
2023-04-15T18:05:43.446Z,71.40
2023-04-15T18:08:10.951Z,71.60
2023-04-15T18:10:38.810Z,71.40
2023-04-15T18:13:06.587Z,72.10
2023-04-15T18:15:34.663Z,72.10
2023-04-15T18:18:02.915Z,71.50
2023-04-15T18:20:30.488Z,73.40
2023-04-15T18:22:58.096Z,71.70
2023-04-15T18:25:26.606Z,71.60
2023-04-15T18:27:55.012Z,72.90
2023-04-15T18:30:23.452Z,73.60
2023-04-15T18:32:50.950Z,72.30
2023-04-15T18:35:18.573Z,72.30
2023-04-15T18:37:45.953Z,72.50
2023-04-15T18:40:13.493Z,72.60
2023-04-15T18:42:40.820Z,73.00
2023-04-15T18:45:08.759Z,73.10
2023-04-15T18:47:36.148Z,73.60
2023-04-15T18:50:03.658Z,73.30
2023-04-15T18:52:31.443Z,73.60
2023-04-15T18:54:58.962Z,73.50
2023-04-15T18:57:32.343Z,73.50
2023-04-15T19:00:02.389Z,73.80
2023-04-15T19:02:29.810Z,73.90
2023-04-15T19:04:57.232Z,74.30
2023-04-15T19:07:24.939Z,74.50
2023-04-15T19:09:53.165Z,74.40
2023-04-15T19:12:20.753Z,75.70
2023-04-15T19:14:48.122Z,73.60
2023-04-15T19:17:15.648Z,74.70
2023-04-15T19:19:43.617Z,74.80
2023-04-15T19:22:11.263Z,74.90
2023-04-15T19:24:38.734Z,75.10
2023-04-15T19:27:06.160Z,75.10
2023-04-15T19:29:33.635Z,75.30
2023-04-15T19:32:01.179Z,75.50
2023-04-15T19:34:28.540Z,75.20
2023-04-15T19:36:56.645Z,75.10
2023-04-15T19:39:24.236Z,76.10
2023-04-15T19:41:55.164Z,75.30
2023-04-15T19:44:22.669Z,75.40
2023-04-15T19:46:51.473Z,75.50
2023-04-15T19:49:19.579Z,75.80
2023-04-15T19:51:49.441Z,76.60
2023-04-15T19:54:17.100Z,77.10
2023-04-15T19:56:44.467Z,76.10
2023-04-15T19:59:12.818Z,75.80
2023-04-15T20:01:40.341Z,75.70
2023-04-15T20:04:08.016Z,76.00
2023-04-15T20:06:35.750Z,76.00
2023-04-15T20:09:03.339Z,76.30
2023-04-15T20:12:46.228Z,77.10
2023-04-15T20:14:18.303Z,76.60
2023-04-15T20:16:45.791Z,76.60
2023-04-15T20:19:13.895Z,76.60
2023-04-15T20:21:41.318Z,76.70
2023-04-15T20:24:08.955Z,76.70
2023-04-15T20:26:36.309Z,76.80
2023-04-15T20:29:04.072Z,76.90
2023-04-15T20:31:32.002Z,75.80
2023-04-15T20:33:59.410Z,76.90
2023-04-15T20:36:26.824Z,77.00
2023-04-15T20:38:54.153Z,77.70
2023-04-15T20:41:22.087Z,77.50
2023-04-15T20:43:49.406Z,77.30
2023-04-15T20:46:21.117Z,77.50
2023-04-15T20:48:49.075Z,77.60
2023-04-15T20:51:16.602Z,78.20
2023-04-15T20:53:43.978Z,78.10
2023-04-15T20:56:11.570Z,78.00
2023-04-15T20:58:39.328Z,78.90
2023-04-15T21:01:06.789Z,78.80
2023-04-15T21:03:35.316Z,79.80
2023-04-15T21:06:02.965Z,78.80
2023-04-15T21:08:31.523Z,79.20
2023-04-15T21:10:58.874Z,78.90
2023-04-15T21:13:26.589Z,79.40
2023-04-15T21:15:54.502Z,79.20
2023-04-15T21:18:22.530Z,79.80
2023-04-15T21:21:02.857Z,79.80
2023-04-15T21:23:30.949Z,82.00
2023-04-15T21:25:59.135Z,80.10
2023-04-15T21:28:28.092Z,80.60
2023-04-15T21:30:56.779Z,79.70
2023-04-15T21:33:24.362Z,80.60
2023-04-15T21:35:54.488Z,80.30
2023-04-15T21:38:23.371Z,79.80
2023-04-15T21:40:51.244Z,80.60
2023-04-15T21:43:18.792Z,81.00
2023-04-15T21:46:21.015Z,80.30
2023-04-15T21:48:33.681Z,81.20
2023-04-15T21:51:01.860Z,80.80
2023-04-15T21:53:29.280Z,81.20
2023-04-15T21:55:56.686Z,81.00
2023-04-15T21:58:24.056Z,80.60
2023-04-15T22:00:57.466Z,81.40
2023-04-15T22:03:25.041Z,82.10
2023-04-15T22:05:52.610Z,81.10
2023-04-15T22:08:19.909Z,80.80
2023-04-15T22:10:47.311Z,80.80
2023-04-15T22:13:14.685Z,81.00
2023-04-15T22:15:42.295Z,80.70
2023-04-15T22:18:11.076Z,81.30
2023-04-15T22:20:38.862Z,81.30
2023-04-15T22:23:08.879Z,81.00
2023-04-15T22:25:37.284Z,81.20
2023-04-15T22:28:09.237Z,81.90
2023-04-15T22:30:43.121Z,81.80
2023-04-15T22:33:10.932Z,83.20
2023-04-15T22:35:38.336Z,81.60
2023-04-15T22:38:05.764Z,81.40
2023-04-15T22:40:33.244Z,81.50
2023-04-15T22:43:00.697Z,81.80
2023-04-15T22:45:28.054Z,81.60
2023-04-15T22:47:55.834Z,81.60
2023-04-15T22:50:23.372Z,82.20
2023-04-15T22:52:50.857Z,81.80
2023-04-15T22:55:18.277Z,81.60
2023-04-15T22:57:45.672Z,82.00
2023-04-15T23:00:13.334Z,82.20
2023-04-15T23:02:40.772Z,82.40
2023-04-15T23:05:13.400Z,82.60
2023-04-15T23:07:41.114Z,82.60
2023-04-15T23:10:08.989Z,82.30
2023-04-15T23:12:36.355Z,82.70
2023-04-15T23:15:04.209Z,83.50
2023-04-15T23:17:31.638Z,83.00
2023-04-15T23:19:59.042Z,83.00
2023-04-15T23:22:26.357Z,83.10
2023-04-15T23:24:53.662Z,83.20
2023-04-15T23:27:21.041Z,84.20
2023-04-15T23:29:48.350Z,83.30
2023-04-15T23:32:15.798Z,84.40
2023-04-15T23:34:43.149Z,83.60
2023-04-15T23:37:10.496Z,83.50
2023-04-15T23:39:37.845Z,83.90
2023-04-15T23:42:05.203Z,84.10
2023-04-15T23:44:32.570Z,84.20
2023-04-15T23:46:59.898Z,84.20
2023-04-15T23:49:27.270Z,84.40
2023-04-15T23:51:54.693Z,84.40
2023-04-15T23:54:22.206Z,85.30
2023-04-15T23:56:49.520Z,84.70
2023-04-15T23:59:16.833Z,84.80
